createdAt,value
2017-06-24T00:00:01.000Z,23.6
2017-06-24T00:10:01.000Z,23.6
2017-06-24T00:20:05.000Z,23.5
2017-06-24T00:30:01.000Z,23.5
2017-06-24T00:40:02.000Z,23.5
2017-06-24T00:50:01.000Z,23.5
2017-06-24T01:00:01.000Z,23.3
2017-06-24T01:10:02.000Z,23.3
2017-06-24T01:20:01.000Z,23.1
2017-06-24T01:30:01.000Z,23
2017-06-24T01:40:02.000Z,22.9
2017-06-24T01:50:01.000Z,22.8
2017-06-24T02:00:01.000Z,22.9
2017-06-24T02:10:01.000Z,22.7
2017-06-24T02:20:01.000Z,22.7
2017-06-24T02:30:02.000Z,22.7
2017-06-24T02:40:01.000Z,22.5
2017-06-24T02:50:01.000Z,22.6
2017-06-24T03:00:05.000Z,22.6
2017-06-24T03:10:01.000Z,22.6
2017-06-24T03:20:01.000Z,22.6
2017-06-24T03:30:02.000Z,22.3
2017-06-24T03:40:01.000Z,22.3
2017-06-24T03:50:01.000Z,22.3
2017-06-24T04:00:01.000Z,22.3
2017-06-24T04:10:02.000Z,22.3
2017-06-24T04:20:01.000Z,22.3
2017-06-24T04:30:01.000Z,21.9
2017-06-24T04:40:02.000Z,22.2
2017-06-24T04:50:01.000Z,22.2
2017-06-24T05:00:01.000Z,22.2
2017-06-24T05:10:02.000Z,22.2
2017-06-24T05:20:01.000Z,22.2
2017-06-24T05:30:01.000Z,22
2017-06-24T05:40:05.000Z,21.6
2017-06-24T05:50:01.000Z,21.6
2017-06-24T06:00:01.000Z,21.6
2017-06-24T06:10:02.000Z,21.6
2017-06-24T06:20:01.000Z,21.8
2017-06-24T06:30:01.000Z,21.6
2017-06-24T06:40:01.000Z,21.6
2017-06-24T06:50:01.000Z,21.6
2017-06-24T07:00:01.000Z,21.8
2017-06-24T07:10:01.000Z,21.7
2017-06-24T07:20:02.000Z,21.8
2017-06-24T07:30:01.000Z,21.8
2017-06-24T07:40:01.000Z,21.9
2017-06-24T07:50:02.000Z,22.2
2017-06-24T08:00:01.000Z,22
2017-06-24T08:10:01.000Z,22.3
2017-06-24T08:20:05.000Z,22.1
2017-06-24T08:30:01.000Z,22
2017-06-24T08:40:01.000Z,22
2017-06-24T08:50:02.000Z,21.8
2017-06-24T09:00:01.000Z,22.2
2017-06-24T09:10:01.000Z,22
2017-06-24T09:20:02.000Z,22.2
2017-06-24T09:30:01.000Z,22.3
2017-06-24T09:40:01.000Z,22.1
2017-06-24T09:50:01.000Z,22.3
2017-06-24T10:00:01.000Z,22.2
2017-06-24T10:10:01.000Z,22.3
2017-06-24T10:20:01.000Z,22
2017-06-24T10:30:01.000Z,22
2017-06-24T10:40:01.000Z,22.2
2017-06-24T10:50:01.000Z,22.1
2017-06-24T11:00:05.000Z,22.3
2017-06-24T11:10:01.000Z,22.3
2017-06-24T11:20:02.000Z,22.3
2017-06-24T11:30:01.000Z,22
2017-06-24T11:40:01.000Z,22
2017-06-24T11:50:02.000Z,22.1
2017-06-24T12:00:02.000Z,22.1
2017-06-24T12:10:01.000Z,22.3
2017-06-24T12:20:01.000Z,22.2
2017-06-24T12:30:01.000Z,22.2
2017-06-24T12:40:02.000Z,22.3
2017-06-24T12:50:01.000Z,22
2017-06-24T13:00:01.000Z,22.3
2017-06-24T13:10:02.000Z,22.2
2017-06-24T13:20:01.000Z,22.1
2017-06-24T13:30:01.000Z,21.8
2017-06-24T13:40:05.000Z,21.6
2017-06-24T13:50:01.000Z,22.3
2017-06-24T14:00:01.000Z,22.5
2017-06-24T14:10:01.000Z,22.7
2017-06-24T14:20:01.000Z,22.7
2017-06-24T14:30:01.000Z,22.7
2017-06-24T14:40:02.000Z,22.7
2017-06-24T14:50:01.000Z,22.9
2017-06-24T15:00:01.000Z,23
2017-06-24T15:10:01.000Z,23
2017-06-24T15:20:02.000Z,23
2017-06-24T15:30:01.000Z,23
2017-06-24T15:40:01.000Z,23
2017-06-24T15:50:01.000Z,23.1
2017-06-24T16:00:02.000Z,23
2017-06-24T16:10:01.000Z,23.1
2017-06-24T16:20:05.000Z,23.1
2017-06-24T16:30:01.000Z,23.1
2017-06-24T16:40:01.000Z,23.2
2017-06-24T16:50:01.000Z,23.2
2017-06-24T17:00:01.000Z,23.1
2017-06-24T17:10:01.000Z,23.2
2017-06-24T17:20:01.000Z,23.2
2017-06-24T17:30:02.000Z,23.1
2017-06-24T17:40:01.000Z,23.1
2017-06-24T17:50:01.000Z,23.2
2017-06-24T18:00:01.000Z,23.1
2017-06-24T18:10:02.000Z,23.1
2017-06-24T18:20:01.000Z,23.1
2017-06-24T18:30:01.000Z,23.1
2017-06-24T18:40:02.000Z,23.1
2017-06-24T18:50:01.000Z,23.1
2017-06-24T19:00:05.000Z,23.1
2017-06-24T19:10:01.000Z,23.1
2017-06-24T19:20:01.000Z,23
2017-06-24T19:30:02.000Z,23
2017-06-24T19:40:01.000Z,23
2017-06-24T19:50:01.000Z,23.1
2017-06-24T20:00:02.000Z,23.1
2017-06-24T20:10:01.000Z,22.3
2017-06-24T20:20:01.000Z,21.8
2017-06-24T20:30:02.000Z,21.6
2017-06-24T20:40:01.000Z,21.6
2017-06-24T20:50:01.000Z,21.5
2017-06-24T21:00:02.000Z,21.3
2017-06-24T21:10:01.000Z,21.1
2017-06-24T21:20:01.000Z,21.1
2017-06-24T21:30:01.000Z,21.1
2017-06-24T21:40:05.000Z,20.7
2017-06-24T21:50:01.000Z,20.8
2017-06-24T22:00:02.000Z,20.7
2017-06-24T22:10:02.000Z,20.9
2017-06-24T22:20:01.000Z,20.9
2017-06-24T22:30:01.000Z,20.8
2017-06-24T22:40:02.000Z,21.1
2017-06-24T22:50:01.000Z,21.1
2017-06-24T23:00:01.000Z,21.3
2017-06-24T23:10:02.000Z,21.5
2017-06-24T23:20:01.000Z,21.3
2017-06-24T23:30:01.000Z,21.4
2017-06-24T23:40:01.000Z,21.4
2017-06-24T23:50:01.000Z,21.5
